sensor_id;sensor_type;location;lat;lon;timestamp;temperature;humidity
37528;DHT22;23372;52.050;4.810;2024-03-23T00:54:01;8.10;99.90
37528;DHT22;23372;52.050;4.810;2024-03-23T00:56:27;8.10;99.90
37528;DHT22;23372;52.050;4.810;2024-03-23T00:58:52;8.10;99.90
37528;DHT22;23372;52.050;4.810;2024-03-23T01:01:18;8.10;99.90
37528;DHT22;23372;52.050;4.810;2024-03-23T01:03:43;8.00;99.90
37528;DHT22;23372;52.050;4.810;2024-03-23T01:06:09;8.00;99.90
37528;DHT22;23372;52.050;4.810;2024-03-23T01:08:34;7.90;99.90
37528;DHT22;23372;52.050;4.810;2024-03-23T01:11:01;7.90;99.90
37528;DHT22;23372;52.050;4.810;2024-03-23T01:13:28;7.70;99.90
37528;DHT22;23372;52.050;4.810;2024-03-23T01:15:55;7.60;99.90
37528;DHT22;23372;52.050;4.810;2024-03-23T01:18:22;7.50;99.90
37528;DHT22;23372;52.050;4.810;2024-03-23T01:20:47;7.40;99.90
37528;DHT22;23372;52.050;4.810;2024-03-23T01:23:13;7.40;99.90
37528;DHT22;23372;52.050;4.810;2024-03-23T01:25:39;7.30;99.90
37528;DHT22;23372;52.050;4.810;2024-03-23T01:28:05;7.30;99.90
37528;DHT22;23372;52.050;4.810;2024-03-23T01:30:32;7.20;99.90
37528;DHT22;23372;52.050;4.810;2024-03-23T01:32:58;7.20;99.90
37528;DHT22;23372;52.050;4.810;2024-03-23T01:35:23;7.10;99.90
37528;DHT22;23372;52.050;4.810;2024-03-23T01:37:49;7.10;99.90
37528;DHT22;23372;52.050;4.810;2024-03-23T01:40:16;7.10;99.90
37528;DHT22;23372;52.050;4.810;2024-03-23T01:42:42;7.00;99.90
37528;DHT22;23372;52.050;4.810;2024-03-23T01:45:08;7.00;99.90
37528;DHT22;23372;52.050;4.810;2024-03-23T01:47:35;6.90;99.90
37528;DHT22;23372;52.050;4.810;2024-03-23T01:50:01;6.90;99.90
37528;DHT22;23372;52.050;4.810;2024-03-23T01:52:27;6.90;99.90
37528;DHT22;23372;52.050;4.810;2024-03-23T01:54:53;6.80;99.90
37528;DHT22;23372;52.050;4.810;2024-03-23T01:57:20;6.80;99.90
37528;DHT22;23372;52.050;4.810;2024-03-23T01:59:46;6.70;99.90
37528;DHT22;23372;52.050;4.810;2024-03-23T02:02:12;6.70;99.90
37528;DHT22;23372;52.050;4.810;2024-03-23T02:04:38;6.70;99.90
37528;DHT22;23372;52.050;4.810;2024-03-23T02:07:05;6.70;99.90
37528;DHT22;23372;52.050;4.810;2024-03-23T02:09:31;6.60;99.90
37528;DHT22;23372;52.050;4.810;2024-03-23T02:11:57;6.60;99.90
37528;DHT22;23372;52.050;4.810;2024-03-23T02:14:23;6.50;99.90
37528;DHT22;23372;52.050;4.810;2024-03-23T02:16:48;6.50;99.90
37528;DHT22;23372;52.050;4.810;2024-03-23T02:19:14;6.50;99.90
37528;DHT22;23372;52.050;4.810;2024-03-23T02:21:40;6.40;99.90
37528;DHT22;23372;52.050;4.810;2024-03-23T02:24:05;6.40;99.90
37528;DHT22;23372;52.050;4.810;2024-03-23T02:26:31;6.30;99.90
37528;DHT22;23372;52.050;4.810;2024-03-23T02:28:57;6.30;99.90
37528;DHT22;23372;52.050;4.810;2024-03-23T02:31:23;6.20;99.90
37528;DHT22;23372;52.050;4.810;2024-03-23T02:33:48;6.20;99.90
37528;DHT22;23372;52.050;4.810;2024-03-23T02:36:14;6.20;99.90
37528;DHT22;23372;52.050;4.810;2024-03-23T02:38:39;6.10;99.90
37528;DHT22;23372;52.050;4.810;2024-03-23T02:41:05;6.10;99.90
37528;DHT22;23372;52.050;4.810;2024-03-23T02:43:31;6.10;99.90
37528;DHT22;23372;52.050;4.810;2024-03-23T02:45:57;6.10;99.90
37528;DHT22;23372;52.050;4.810;2024-03-23T02:48:23;6.10;99.90
37528;DHT22;23372;52.050;4.810;2024-03-23T02:50:49;6.10;99.90
37528;DHT22;23372;52.050;4.810;2024-03-23T02:53:16;6.00;99.90
37528;DHT22;23372;52.050;4.810;2024-03-23T02:55:41;6.00;99.90
37528;DHT22;23372;52.050;4.810;2024-03-23T02:58:07;5.90;99.90
37528;DHT22;23372;52.050;4.810;2024-03-23T03:00:32;5.90;99.90
37528;DHT22;23372;52.050;4.810;2024-03-23T03:02:58;5.80;99.90
37528;DHT22;23372;52.050;4.810;2024-03-23T03:05:23;5.80;99.90
37528;DHT22;23372;52.050;4.810;2024-03-23T03:07:50;5.80;99.90
37528;DHT22;23372;52.050;4.810;2024-03-23T03:10:15;5.80;99.90
37528;DHT22;23372;52.050;4.810;2024-03-23T03:12:41;5.80;99.90
37528;DHT22;23372;52.050;4.810;2024-03-23T03:15:08;5.80;99.90
37528;DHT22;23372;52.050;4.810;2024-03-23T03:17:34;5.70;99.90
37528;DHT22;23372;52.050;4.810;2024-03-23T03:20:00;5.70;99.90
37528;DHT22;23372;52.050;4.810;2024-03-23T03:22:25;5.70;99.90
37528;DHT22;23372;52.050;4.810;2024-03-23T03:24:51;5.70;99.90
37528;DHT22;23372;52.050;4.810;2024-03-23T03:27:17;5.70;99.90
37528;DHT22;23372;52.050;4.810;2024-03-23T03:29:42;5.60;99.90
37528;DHT22;23372;52.050;4.810;2024-03-23T03:32:08;5.70;99.90
37528;DHT22;23372;52.050;4.810;2024-03-23T03:34:34;5.70;99.90
37528;DHT22;23372;52.050;4.810;2024-03-23T03:37:00;5.70;99.90
37528;DHT22;23372;52.050;4.810;2024-03-23T03:39:25;5.80;99.90
37528;DHT22;23372;52.050;4.810;2024-03-23T03:41:51;5.90;99.90
37528;DHT22;23372;52.050;4.810;2024-03-23T03:44:17;6.00;99.90
37528;DHT22;23372;52.050;4.810;2024-03-23T03:46:43;6.10;99.90
37528;DHT22;23372;52.050;4.810;2024-03-23T03:49:09;6.20;99.90
37528;DHT22;23372;52.050;4.810;2024-03-23T03:51:35;6.30;99.90
37528;DHT22;23372;52.050;4.810;2024-03-23T03:54:00;6.30;99.90
37528;DHT22;23372;52.050;4.810;2024-03-23T03:56:26;6.30;99.90
37528;DHT22;23372;52.050;4.810;2024-03-23T03:58:53;6.30;99.90
37528;DHT22;23372;52.050;4.810;2024-03-23T04:01:18;6.30;99.90
37528;DHT22;23372;52.050;4.810;2024-03-23T04:03:44;6.30;99.90
37528;DHT22;23372;52.050;4.810;2024-03-23T04:06:10;6.20;99.90
37528;DHT22;23372;52.050;4.810;2024-03-23T04:08:36;6.30;99.90
37528;DHT22;23372;52.050;4.810;2024-03-23T04:11:02;6.30;99.90
37528;DHT22;23372;52.050;4.810;2024-03-23T04:13:27;6.20;99.90
37528;DHT22;23372;52.050;4.810;2024-03-23T04:15:55;6.20;99.90
37528;DHT22;23372;52.050;4.810;2024-03-23T04:18:21;6.20;99.90
37528;DHT22;23372;52.050;4.810;2024-03-23T04:20:48;6.20;99.90
37528;DHT22;23372;52.050;4.810;2024-03-23T04:23:13;6.20;99.90
37528;DHT22;23372;52.050;4.810;2024-03-23T04:25:39;6.10;99.90
37528;DHT22;23372;52.050;4.810;2024-03-23T04:28:05;6.10;99.90
37528;DHT22;23372;52.050;4.810;2024-03-23T04:30:30;6.10;99.90
37528;DHT22;23372;52.050;4.810;2024-03-23T04:32:57;6.10;99.90
37528;DHT22;23372;52.050;4.810;2024-03-23T04:35:24;6.00;99.90
37528;DHT22;23372;52.050;4.810;2024-03-23T04:37:51;6.00;99.90
37528;DHT22;23372;52.050;4.810;2024-03-23T04:40:18;6.00;99.90
37528;DHT22;23372;52.050;4.810;2024-03-23T04:42:44;6.00;99.90
37528;DHT22;23372;52.050;4.810;2024-03-23T04:45:10;6.00;99.90
37528;DHT22;23372;52.050;4.810;2024-03-23T04:47:37;6.00;99.90
37528;DHT22;23372;52.050;4.810;2024-03-23T04:50:03;6.10;99.90
37528;DHT22;23372;52.050;4.810;2024-03-23T04:52:29;6.00;99.90
37528;DHT22;23372;52.050;4.810;2024-03-23T04:54:55;6.00;99.90
37528;DHT22;23372;52.050;4.810;2024-03-23T04:57:21;6.00;99.90
37528;DHT22;23372;52.050;4.810;2024-03-23T04:59:46;6.00;99.90
37528;DHT22;23372;52.050;4.810;2024-03-23T05:02:13;5.90;99.90
37528;DHT22;23372;52.050;4.810;2024-03-23T05:04:38;5.90;99.90
37528;DHT22;23372;52.050;4.810;2024-03-23T05:07:06;5.90;99.90
37528;DHT22;23372;52.050;4.810;2024-03-23T05:09:31;5.90;99.90
37528;DHT22;23372;52.050;4.810;2024-03-23T05:11:59;5.90;99.90
37528;DHT22;23372;52.050;4.810;2024-03-23T05:14:26;5.90;99.90
37528;DHT22;23372;52.050;4.810;2024-03-23T05:16:52;5.90;99.90
37528;DHT22;23372;52.050;4.810;2024-03-23T05:19:18;6.00;99.90
37528;DHT22;23372;52.050;4.810;2024-03-23T05:21:44;6.00;99.90
37528;DHT22;23372;52.050;4.810;2024-03-23T05:24:10;6.10;99.90
37528;DHT22;23372;52.050;4.810;2024-03-23T05:26:35;6.10;99.90
37528;DHT22;23372;52.050;4.810;2024-03-23T05:29:02;6.10;99.90
37528;DHT22;23372;52.050;4.810;2024-03-23T05:31:29;6.20;99.90
37528;DHT22;23372;52.050;4.810;2024-03-23T05:33:55;6.30;99.90
37528;DHT22;23372;52.050;4.810;2024-03-23T05:36:21;6.30;99.90
37528;DHT22;23372;52.050;4.810;2024-03-23T05:38:47;6.40;99.90
37528;DHT22;23372;52.050;4.810;2024-03-23T05:41:13;6.40;99.90
37528;DHT22;23372;52.050;4.810;2024-03-23T05:43:39;6.40;99.90
37528;DHT22;23372;52.050;4.810;2024-03-23T05:46:05;6.40;99.90
37528;DHT22;23372;52.050;4.810;2024-03-23T05:48:31;6.30;99.90
37528;DHT22;23372;52.050;4.810;2024-03-23T05:50:57;6.30;99.90
37528;DHT22;23372;52.050;4.810;2024-03-23T05:53:24;6.40;99.90
37528;DHT22;23372;52.050;4.810;2024-03-23T05:55:50;6.50;99.90
37528;DHT22;23372;52.050;4.810;2024-03-23T05:58:17;6.60;99.90
37528;DHT22;23372;52.050;4.810;2024-03-23T06:00:43;6.60;99.90
37528;DHT22;23372;52.050;4.810;2024-03-23T06:03:10;6.60;99.90
37528;DHT22;23372;52.050;4.810;2024-03-23T06:05:36;6.70;99.90
37528;DHT22;23372;52.050;4.810;2024-03-23T06:08:03;6.70;99.90
37528;DHT22;23372;52.050;4.810;2024-03-23T06:10:28;6.80;99.90
37528;DHT22;23372;52.050;4.810;2024-03-23T06:12:54;6.70;99.90
37528;DHT22;23372;52.050;4.810;2024-03-23T06:15:20;6.70;99.90
37528;DHT22;23372;52.050;4.810;2024-03-23T06:17:46;6.60;99.90
37528;DHT22;23372;52.050;4.810;2024-03-23T06:20:12;6.60;99.90
37528;DHT22;23372;52.050;4.810;2024-03-23T06:22:38;6.60;99.90
37528;DHT22;23372;52.050;4.810;2024-03-23T06:25:04;6.60;99.90
37528;DHT22;23372;52.050;4.810;2024-03-23T06:27:30;6.60;99.90
37528;DHT22;23372;52.050;4.810;2024-03-23T06:29:57;6.70;99.90
37528;DHT22;23372;52.050;4.810;2024-03-23T06:32:23;6.70;99.90
37528;DHT22;23372;52.050;4.810;2024-03-23T06:34:48;6.80;99.90
37528;DHT22;23372;52.050;4.810;2024-03-23T06:37:14;6.90;99.90
37528;DHT22;23372;52.050;4.810;2024-03-23T06:39:40;7.00;99.90
37528;DHT22;23372;52.050;4.810;2024-03-23T06:42:05;7.00;99.90
37528;DHT22;23372;52.050;4.810;2024-03-23T06:44:31;7.20;99.90
37528;DHT22;23372;52.050;4.810;2024-03-23T06:46:57;7.30;99.90
37528;DHT22;23372;52.050;4.810;2024-03-23T06:49:23;7.40;99.90
37528;DHT22;23372;52.050;4.810;2024-03-23T06:51:49;7.50;99.90
37528;DHT22;23372;52.050;4.810;2024-03-23T06:54:16;7.70;99.90
37528;DHT22;23372;52.050;4.810;2024-03-23T06:56:44;8.10;99.90
37528;DHT22;23372;52.050;4.810;2024-03-23T06:59:09;8.00;99.90
37528;DHT22;23372;52.050;4.810;2024-03-23T07:01:35;7.70;99.90
37528;DHT22;23372;52.050;4.810;2024-03-23T07:04:01;7.80;99.90
37528;DHT22;23372;52.050;4.810;2024-03-23T07:06:26;8.70;99.90
37528;DHT22;23372;52.050;4.810;2024-03-23T07:08:53;9.80;99.90
37528;DHT22;23372;52.050;4.810;2024-03-23T07:11:20;11.00;99.90
37528;DHT22;23372;52.050;4.810;2024-03-23T07:13:46;11.50;99.90
37528;DHT22;23372;52.050;4.810;2024-03-23T07:16:12;12.20;99.90
37528;DHT22;23372;52.050;4.810;2024-03-23T07:18:38;12.20;99.90
37528;DHT22;23372;52.050;4.810;2024-03-23T07:21:04;12.30;99.90
37528;DHT22;23372;52.050;4.810;2024-03-23T07:23:32;11.70;99.90
37528;DHT22;23372;52.050;4.810;2024-03-23T07:26:00;11.80;99.90
37528;DHT22;23372;52.050;4.810;2024-03-23T07:28:26;11.40;99.90
37528;DHT22;23372;52.050;4.810;2024-03-23T07:31:10;10.90;99.90
37528;DHT22;23372;52.050;4.810;2024-03-23T07:33:41;9.70;99.90
37528;DHT22;23372;52.050;4.810;2024-03-23T07:36:06;9.00;99.90
37528;DHT22;23372;52.050;4.810;2024-03-23T07:38:32;8.40;99.90
37528;DHT22;23372;52.050;4.810;2024-03-23T07:41:07;8.10;99.90
37528;DHT22;23372;52.050;4.810;2024-03-23T07:43:33;8.10;99.90
37528;DHT22;23372;52.050;4.810;2024-03-23T07:45:59;10.00;99.90
37528;DHT22;23372;52.050;4.810;2024-03-23T07:48:25;10.20;99.90
37528;DHT22;23372;52.050;4.810;2024-03-23T07:50:59;9.90;99.90
37528;DHT22;23372;52.050;4.810;2024-03-23T07:53:26;9.60;99.90
37528;DHT22;23372;52.050;4.810;2024-03-23T07:55:55;8.90;99.90
37528;DHT22;23372;52.050;4.810;2024-03-23T07:58:21;8.40;99.90
37528;DHT22;23372;52.050;4.810;2024-03-23T08:00:46;8.20;99.90
37528;DHT22;23372;52.050;4.810;2024-03-23T08:03:12;8.20;99.90
37528;DHT22;23372;52.050;4.810;2024-03-23T08:05:37;9.00;99.90
37528;DHT22;23372;52.050;4.810;2024-03-23T08:08:03;11.40;99.90
37528;DHT22;23372;52.050;4.810;2024-03-23T08:10:29;13.30;99.90
37528;DHT22;23372;52.050;4.810;2024-03-23T08:12:54;14.20;99.90
37528;DHT22;23372;52.050;4.810;2024-03-23T08:15:20;15.20;99.90
37528;DHT22;23372;52.050;4.810;2024-03-23T08:17:46;15.20;99.90
37528;DHT22;23372;52.050;4.810;2024-03-23T08:20:11;13.80;99.90
37528;DHT22;23372;52.050;4.810;2024-03-23T08:22:37;13.90;99.90
37528;DHT22;23372;52.050;4.810;2024-03-23T08:25:03;14.40;99.90
37528;DHT22;23372;52.050;4.810;2024-03-23T08:27:28;13.40;99.90
37528;DHT22;23372;52.050;4.810;2024-03-23T08:29:54;11.70;99.90
37528;DHT22;23372;52.050;4.810;2024-03-23T08:32:20;10.40;99.90
37528;DHT22;23372;52.050;4.810;2024-03-23T08:34:45;9.60;99.90
37528;DHT22;23372;52.050;4.810;2024-03-23T08:37:11;9.10;99.90
37528;DHT22;23372;52.050;4.810;2024-03-23T08:39:36;8.90;99.90
37528;DHT22;23372;52.050;4.810;2024-03-23T08:42:02;9.30;99.90
37528;DHT22;23372;52.050;4.810;2024-03-23T08:44:28;9.50;99.90
37528;DHT22;23372;52.050;4.810;2024-03-23T08:46:56;9.70;99.90
37528;DHT22;23372;52.050;4.810;2024-03-23T08:49:21;9.20;99.90
37528;DHT22;23372;52.050;4.810;2024-03-23T08:51:47;9.30;99.90
37528;DHT22;23372;52.050;4.810;2024-03-23T08:54:12;10.50;99.90
37528;DHT22;23372;52.050;4.810;2024-03-23T08:56:38;12.40;99.90
37528;DHT22;23372;52.050;4.810;2024-03-23T08:59:04;12.40;99.90
37528;DHT22;23372;52.050;4.810;2024-03-23T09:01:30;12.00;99.90
37528;DHT22;23372;52.050;4.810;2024-03-23T09:03:55;10.50;99.90
37528;DHT22;23372;52.050;4.810;2024-03-23T09:06:21;9.50;99.90
37528;DHT22;23372;52.050;4.810;2024-03-23T09:08:46;8.90;99.90
37528;DHT22;23372;52.050;4.810;2024-03-23T09:11:13;8.60;99.90
37528;DHT22;23372;52.050;4.810;2024-03-23T09:13:39;9.20;99.90
37528;DHT22;23372;52.050;4.810;2024-03-23T09:16:06;10.60;99.90
37528;DHT22;23372;52.050;4.810;2024-03-23T09:18:33;11.50;99.90
37528;DHT22;23372;52.050;4.810;2024-03-23T09:21:00;10.40;99.90
37528;DHT22;23372;52.050;4.810;2024-03-23T09:23:26;9.60;99.90
37528;DHT22;23372;52.050;4.810;2024-03-23T09:25:51;9.10;99.90
37528;DHT22;23372;52.050;4.810;2024-03-23T09:28:17;8.80;99.90
37528;DHT22;23372;52.050;4.810;2024-03-23T09:30:43;9.20;99.90
37528;DHT22;23372;52.050;4.810;2024-03-23T09:33:09;9.70;99.90
37528;DHT22;23372;52.050;4.810;2024-03-23T09:35:39;10.00;99.90
37528;DHT22;23372;52.050;4.810;2024-03-23T09:38:06;9.80;99.90
37528;DHT22;23372;52.050;4.810;2024-03-23T09:40:34;9.50;99.90
37528;DHT22;23372;52.050;4.810;2024-03-23T09:43:00;9.20;99.90
37528;DHT22;23372;52.050;4.810;2024-03-23T09:45:28;8.90;99.90
37528;DHT22;23372;52.050;4.810;2024-03-23T09:47:55;8.60;99.90
37528;DHT22;23372;52.050;4.810;2024-03-23T09:50:21;8.60;99.90
37528;DHT22;23372;52.050;4.810;2024-03-23T09:52:47;8.70;99.90
37528;DHT22;23372;52.050;4.810;2024-03-23T09:55:13;8.70;99.90
37528;DHT22;23372;52.050;4.810;2024-03-23T09:57:40;8.80;99.90
37528;DHT22;23372;52.050;4.810;2024-03-23T10:00:06;9.20;99.90
37528;DHT22;23372;52.050;4.810;2024-03-23T10:02:34;9.90;99.90
37528;DHT22;23372;52.050;4.810;2024-03-23T10:04:59;10.50;99.90
37528;DHT22;23372;52.050;4.810;2024-03-23T10:07:25;10.80;99.90
37528;DHT22;23372;52.050;4.810;2024-03-23T10:09:53;10.50;99.90
37528;DHT22;23372;52.050;4.810;2024-03-23T10:12:19;9.90;99.90
37528;DHT22;23372;52.050;4.810;2024-03-23T10:14:45;9.70;99.90
37528;DHT22;23372;52.050;4.810;2024-03-23T10:17:17;10.10;99.90
37528;DHT22;23372;52.050;4.810;2024-03-23T10:19:47;10.10;99.90
37528;DHT22;23372;52.050;4.810;2024-03-23T10:22:17;10.40;99.90
37528;DHT22;23372;52.050;4.810;2024-03-23T10:24:43;10.80;99.90
37528;DHT22;23372;52.050;4.810;2024-03-23T10:27:09;10.80;99.90
37528;DHT22;23372;52.050;4.810;2024-03-23T10:29:35;11.20;99.90
37528;DHT22;23372;52.050;4.810;2024-03-23T10:32:09;11.10;99.90
37528;DHT22;23372;52.050;4.810;2024-03-23T10:34:36;10.40;99.90
37528;DHT22;23372;52.050;4.810;2024-03-23T10:37:02;9.80;99.90
37528;DHT22;23372;52.050;4.810;2024-03-23T10:39:36;9.40;99.90
37528;DHT22;23372;52.050;4.810;2024-03-23T10:42:03;9.10;99.90
37528;DHT22;23372;52.050;4.810;2024-03-23T10:44:29;9.60;99.90
37528;DHT22;23372;52.050;4.810;2024-03-23T10:46:57;10.10;99.90
37528;DHT22;23372;52.050;4.810;2024-03-23T10:49:28;10.20;99.90
37528;DHT22;23372;52.050;4.810;2024-03-23T10:51:56;10.90;99.90
37528;DHT22;23372;52.050;4.810;2024-03-23T10:54:24;11.00;99.90
37528;DHT22;23372;52.050;4.810;2024-03-23T10:56:53;10.70;99.90
37528;DHT22;23372;52.050;4.810;2024-03-23T10:59:21;11.00;99.90
37528;DHT22;23372;52.050;4.810;2024-03-23T11:02:02;11.10;99.90
37528;DHT22;23372;52.050;4.810;2024-03-23T11:04:33;11.00;99.90
37528;DHT22;23372;52.050;4.810;2024-03-23T11:06:59;10.60;99.90
37528;DHT22;23372;52.050;4.810;2024-03-23T11:09:38;10.20;99.90
37528;DHT22;23372;52.050;4.810;2024-03-23T11:12:24;10.00;99.90
37528;DHT22;23372;52.050;4.810;2024-03-23T11:14:55;10.20;99.90
37528;DHT22;23372;52.050;4.810;2024-03-23T11:17:22;10.70;99.90
37528;DHT22;23372;52.050;4.810;2024-03-23T11:19:58;10.60;99.90
37528;DHT22;23372;52.050;4.810;2024-03-23T11:22:47;10.40;99.90
37528;DHT22;23372;52.050;4.810;2024-03-23T11:25:21;10.10;99.90
37528;DHT22;23372;52.050;4.810;2024-03-23T11:27:48;9.80;99.90
37528;DHT22;23372;52.050;4.810;2024-03-23T11:30:17;9.50;99.90
37528;DHT22;23372;52.050;4.810;2024-03-23T11:32:47;9.50;99.90
37528;DHT22;23372;52.050;4.810;2024-03-23T11:35:28;10.20;99.90
37528;DHT22;23372;52.050;4.810;2024-03-23T11:38:02;10.90;99.90
37528;DHT22;23372;52.050;4.810;2024-03-23T11:40:28;11.40;99.90
37528;DHT22;23372;52.050;4.810;2024-03-23T11:42:58;11.20;99.90
37528;DHT22;23372;52.050;4.810;2024-03-23T11:45:24;11.20;99.90
37528;DHT22;23372;52.050;4.810;2024-03-23T11:48:03;11.80;99.90
37528;DHT22;23372;52.050;4.810;2024-03-23T11:50:29;11.90;99.90
37528;DHT22;23372;52.050;4.810;2024-03-23T11:53:07;11.40;99.90
37528;DHT22;23372;52.050;4.810;2024-03-23T11:55:42;11.10;99.90
37528;DHT22;23372;52.050;4.810;2024-03-23T11:58:09;11.60;99.90
37528;DHT22;23372;52.050;4.810;2024-03-23T12:00:35;11.60;99.90
37528;DHT22;23372;52.050;4.810;2024-03-23T12:03:02;11.20;99.90
37528;DHT22;23372;52.050;4.810;2024-03-23T12:05:28;11.00;99.90
37528;DHT22;23372;52.050;4.810;2024-03-23T12:07:55;10.50;99.90
37528;DHT22;23372;52.050;4.810;2024-03-23T12:10:20;10.60;99.90
37528;DHT22;23372;52.050;4.810;2024-03-23T12:12:46;10.80;99.90
37528;DHT22;23372;52.050;4.810;2024-03-23T12:15:12;11.30;99.90
37528;DHT22;23372;52.050;4.810;2024-03-23T12:17:40;11.70;99.90
37528;DHT22;23372;52.050;4.810;2024-03-23T12:20:06;11.00;99.90
37528;DHT22;23372;52.050;4.810;2024-03-23T12:22:32;10.60;99.90
37528;DHT22;23372;52.050;4.810;2024-03-23T12:24:59;10.60;99.90
37528;DHT22;23372;52.050;4.810;2024-03-23T12:27:25;10.70;99.90
37528;DHT22;23372;52.050;4.810;2024-03-23T12:29:51;10.80;99.90
37528;DHT22;23372;52.050;4.810;2024-03-23T12:32:16;11.10;99.90
37528;DHT22;23372;52.050;4.810;2024-03-23T12:34:42;10.70;99.90
37528;DHT22;23372;52.050;4.810;2024-03-23T12:37:08;10.40;99.90
37528;DHT22;23372;52.050;4.810;2024-03-23T12:39:35;10.20;99.90
37528;DHT22;23372;52.050;4.810;2024-03-23T12:42:01;10.10;99.90
37528;DHT22;23372;52.050;4.810;2024-03-23T12:44:28;10.00;99.90
37528;DHT22;23372;52.050;4.810;2024-03-23T12:46:54;9.20;99.90
37528;DHT22;23372;52.050;4.810;2024-03-23T12:49:20;8.30;99.90
37528;DHT22;23372;52.050;4.810;2024-03-23T12:51:54;7.90;99.90
37528;DHT22;23372;52.050;4.810;2024-03-23T12:54:20;8.20;99.90
37528;DHT22;23372;52.050;4.810;2024-03-23T12:56:46;8.30;99.90
37528;DHT22;23372;52.050;4.810;2024-03-23T12:59:12;8.20;99.90
37528;DHT22;23372;52.050;4.810;2024-03-23T13:01:38;7.90;99.90
37528;DHT22;23372;52.050;4.810;2024-03-23T13:04:04;7.70;99.90
37528;DHT22;23372;52.050;4.810;2024-03-23T13:06:29;8.00;99.90
37528;DHT22;23372;52.050;4.810;2024-03-23T13:09:00;8.40;99.90
37528;DHT22;23372;52.050;4.810;2024-03-23T13:11:27;8.40;99.90
37528;DHT22;23372;52.050;4.810;2024-03-23T13:13:52;8.20;99.90
37528;DHT22;23372;52.050;4.810;2024-03-23T13:16:18;8.00;99.90
37528;DHT22;23372;52.050;4.810;2024-03-23T13:18:43;7.10;99.90
37528;DHT22;23372;52.050;4.810;2024-03-23T13:21:09;6.90;99.90
37528;DHT22;23372;52.050;4.810;2024-03-23T13:23:34;7.00;99.90
37528;DHT22;23372;52.050;4.810;2024-03-23T13:26:01;7.60;99.90
37528;DHT22;23372;52.050;4.810;2024-03-23T13:28:27;8.20;99.90
37528;DHT22;23372;52.050;4.810;2024-03-23T13:30:54;8.70;99.90
37528;DHT22;23372;52.050;4.810;2024-03-23T13:33:20;9.00;99.90
37528;DHT22;23372;52.050;4.810;2024-03-23T13:35:53;9.20;99.90
37528;DHT22;23372;52.050;4.810;2024-03-23T13:38:20;9.30;99.90
37528;DHT22;23372;52.050;4.810;2024-03-23T13:40:55;9.50;99.90
37528;DHT22;23372;52.050;4.810;2024-03-23T13:43:22;9.40;99.90
37528;DHT22;23372;52.050;4.810;2024-03-23T13:45:49;9.30;99.90
37528;DHT22;23372;52.050;4.810;2024-03-23T13:48:16;9.00;99.90
37528;DHT22;23372;52.050;4.810;2024-03-23T13:50:43;8.90;99.90
37528;DHT22;23372;52.050;4.810;2024-03-23T13:53:09;8.90;99.90
37528;DHT22;23372;52.050;4.810;2024-03-23T13:55:34;8.90;99.90
37528;DHT22;23372;52.050;4.810;2024-03-23T13:58:01;9.20;99.90
37528;DHT22;23372;52.050;4.810;2024-03-23T14:00:27;9.30;99.90
37528;DHT22;23372;52.050;4.810;2024-03-23T14:02:52;9.40;99.90
37528;DHT22;23372;52.050;4.810;2024-03-23T14:05:18;9.30;99.90
37528;DHT22;23372;52.050;4.810;2024-03-23T14:07:44;9.20;99.90
37528;DHT22;23372;52.050;4.810;2024-03-23T14:10:09;9.30;99.90
37528;DHT22;23372;52.050;4.810;2024-03-23T14:12:36;9.50;99.90
37528;DHT22;23372;52.050;4.810;2024-03-23T14:15:06;9.60;99.90
37528;DHT22;23372;52.050;4.810;2024-03-23T14:17:31;9.10;99.90
37528;DHT22;23372;52.050;4.810;2024-03-23T14:19:57;8.80;99.90
37528;DHT22;23372;52.050;4.810;2024-03-23T14:22:27;8.90;99.90
37528;DHT22;23372;52.050;4.810;2024-03-23T14:24:53;8.90;99.90
37528;DHT22;23372;52.050;4.810;2024-03-23T14:27:19;9.00;99.90
37528;DHT22;23372;52.050;4.810;2024-03-23T14:29:46;9.10;99.90
37528;DHT22;23372;52.050;4.810;2024-03-23T14:32:12;9.20;99.90
37528;DHT22;23372;52.050;4.810;2024-03-23T14:34:38;9.20;99.90
37528;DHT22;23372;52.050;4.810;2024-03-23T14:37:03;9.30;99.90
37528;DHT22;23372;52.050;4.810;2024-03-23T14:39:30;9.10;99.90
37528;DHT22;23372;52.050;4.810;2024-03-23T14:41:56;9.00;99.90
37528;DHT22;23372;52.050;4.810;2024-03-23T14:44:22;9.00;99.90
37528;DHT22;23372;52.050;4.810;2024-03-23T14:46:49;9.10;99.90
37528;DHT22;23372;52.050;4.810;2024-03-23T14:49:15;9.20;99.90
37528;DHT22;23372;52.050;4.810;2024-03-23T14:51:42;9.10;99.90
37528;DHT22;23372;52.050;4.810;2024-03-23T14:54:08;8.80;99.90
37528;DHT22;23372;52.050;4.810;2024-03-23T14:56:33;8.60;99.90
37528;DHT22;23372;52.050;4.810;2024-03-23T14:59:00;8.90;99.90
37528;DHT22;23372;52.050;4.810;2024-03-23T15:01:26;9.20;99.90
37528;DHT22;23372;52.050;4.810;2024-03-23T15:03:51;9.30;99.90
37528;DHT22;23372;52.050;4.810;2024-03-23T15:06:19;9.60;99.90
37528;DHT22;23372;52.050;4.810;2024-03-23T15:08:45;9.50;99.90
37528;DHT22;23372;52.050;4.810;2024-03-23T15:11:10;9.10;99.90
37528;DHT22;23372;52.050;4.810;2024-03-23T15:13:37;9.00;99.90
37528;DHT22;23372;52.050;4.810;2024-03-23T15:16:04;8.90;99.90
37528;DHT22;23372;52.050;4.810;2024-03-23T15:18:31;8.80;99.90
37528;DHT22;23372;52.050;4.810;2024-03-23T15:20:59;8.80;99.90
37528;DHT22;23372;52.050;4.810;2024-03-23T15:23:28;9.00;99.90
37528;DHT22;23372;52.050;4.810;2024-03-23T15:25:55;9.20;99.90
37528;DHT22;23372;52.050;4.810;2024-03-23T15:28:22;9.30;99.90
37528;DHT22;23372;52.050;4.810;2024-03-23T15:30:48;9.30;99.90
37528;DHT22;23372;52.050;4.810;2024-03-23T15:33:14;9.40;99.90
37528;DHT22;23372;52.050;4.810;2024-03-23T15:35:39;9.40;99.90
37528;DHT22;23372;52.050;4.810;2024-03-23T15:38:05;9.20;99.90
37528;DHT22;23372;52.050;4.810;2024-03-23T15:40:30;9.10;99.90
37528;DHT22;23372;52.050;4.810;2024-03-23T15:42:56;9.00;99.90
37528;DHT22;23372;52.050;4.810;2024-03-23T15:45:21;8.90;99.90
37528;DHT22;23372;52.050;4.810;2024-03-23T15:47:47;8.80;99.90
37528;DHT22;23372;52.050;4.810;2024-03-23T15:50:13;8.70;99.90
37528;DHT22;23372;52.050;4.810;2024-03-23T15:52:38;8.70;99.90
37528;DHT22;23372;52.050;4.810;2024-03-23T15:55:04;8.80;99.90
37528;DHT22;23372;52.050;4.810;2024-03-23T15:57:33;8.80;99.90
37528;DHT22;23372;52.050;4.810;2024-03-23T15:59:59;8.90;99.90
37528;DHT22;23372;52.050;4.810;2024-03-23T16:02:24;8.80;99.90
37528;DHT22;23372;52.050;4.810;2024-03-23T16:04:50;8.80;99.90
37528;DHT22;23372;52.050;4.810;2024-03-23T16:07:15;9.10;99.90
37528;DHT22;23372;52.050;4.810;2024-03-23T16:09:41;9.40;99.90
37528;DHT22;23372;52.050;4.810;2024-03-23T16:12:06;9.60;99.90
37528;DHT22;23372;52.050;4.810;2024-03-23T16:14:32;9.70;99.90
37528;DHT22;23372;52.050;4.810;2024-03-23T16:16:58;9.80;99.90
37528;DHT22;23372;52.050;4.810;2024-03-23T16:19:23;9.80;99.90
37528;DHT22;23372;52.050;4.810;2024-03-23T16:21:49;9.70;99.90
37528;DHT22;23372;52.050;4.810;2024-03-23T16:24:14;9.30;99.90
37528;DHT22;23372;52.050;4.810;2024-03-23T16:26:40;9.10;99.90
37528;DHT22;23372;52.050;4.810;2024-03-23T16:29:05;9.00;99.90
37528;DHT22;23372;52.050;4.810;2024-03-23T16:31:31;8.80;99.90